Ncc Rabigh — HZQA — position and weather

sailwx.info

Track history (hours):
 
Tides and Currents Weather Stations Pressure Air Temp Water Temp Dewpoint Dewpoint Depression Visibility Wind Speed Wind Dir Waves Ship Positions

Ncc Rabigh

Last reported at 2017-Jan-10 07:26 UTC. Time now 2017-Jan-20 13:52 UTC.
Position N 31°05' E 122°27'.
Warning: this ship's position is 10 days out of date.

Length 183 m; draft 7.5 m.

Type: Ship. MMSI: 403575000.

Date/timePositionNaut miles runAvg speedWind from/ knotsBaromVisibWave heightAir tempDewpointWater temp
2017-Jan-10 07:26N 31°05' E 122°27'1112.7
2017-Jan-10 06:33N 31°08' E 122°15'1514.7
2017-Jan-10 05:33N 31°15' E 121°59'1413.9
2017-Jan-10 04:33N 31°19' E 121°44'1211.9
2017-Jan-10 03:33N 31°25' E 121°31'9 8.9
2017-Jan-10 02:33N 31°31' E 121°24'7 6.4
2017-Jan-10 01:32N 31°35' E 121°18'0 0.0
2017-Jan-10 00:32N 31°35' E 121°18'0 0.0
2017-Jan-09 23:32N 31°35' E 121°18'0 0.0
2017-Jan-09 22:32N 31°35' E 121°18'0 0.0
2017-Jan-09 21:32N 31°35' E 121°18'0 0.0
2017-Jan-09 20:32N 31°35' E 121°18'0 0.0
2017-Jan-09 19:32N 31°35' E 121°18'0 0.0
2017-Jan-09 18:32N 31°35' E 121°18'0 0.0
2017-Jan-09 17:32N 31°35' E 121°18'0 0.0
2017-Jan-09 16:26N 31°35' E 121°18'0 0.0
2017-Jan-09 15:26N 31°35' E 121°18'0 0.0
2017-Jan-09 14:32N 31°35' E 121°18'0 0.0
2017-Jan-09 13:32N 31°35' E 121°18'0 0.0
2017-Jan-09 12:32N 31°35' E 121°18'0 0.0
2017-Jan-09 11:28N 31°35' E 121°18'0 0.0
2017-Jan-09 10:32N 31°35' E 121°18'0 0.0
2017-Jan-09 09:32N 31°35' E 121°18'0 0.0
2017-Jan-09 08:31N 31°35' E 121°18'0 0.0
2017-Jan-09 07:32N 31°35' E 121°18'0 0.0
2017-Jan-09 06:31N 31°35' E 121°18'0 0.0
2017-Jan-09 05:29N 31°35' E 121°18'0 0.0
2017-Jan-09 04:31N 31°35' E 121°18'0 0.0
2017-Jan-09 03:32N 31°35' E 121°18'0 0.4
2017-Jan-09 02:33N 31°35' E 121°18'2 1.7
2017-Jan-09 01:28N 31°34' E 121°20'0 0.0
2017-Jan-09 00:28N 31°34' E 121°20'0 0.2
2017-Jan-08 23:28N 31°34' E 121°20'0 0.1
2017-Jan-08 22:28N 31°34' E 121°20'0 0.0
2017-Jan-08 21:31N 31°34' E 121°20'0 0.0
2017-Jan-08 20:31N 31°34' E 121°20'0 0.0
2017-Jan-08 19:31N 31°34' E 121°20'0 0.0
2017-Jan-08 18:28N 31°34' E 121°20'0 0.1
2017-Jan-08 17:28N 31°34' E 121°20'0 0.0
2017-Jan-08 16:31N 31°34' E 121°20'0 0.0
2017-Jan-08 15:28N 31°34' E 121°20'0 0.0
2017-Jan-08 14:28N 31°34' E 121°20'0 0.0
2017-Jan-08 13:22N 31°34' E 121°20'0 0.1
2017-Jan-08 12:31N 31°34' E 121°20'0 0.1
2017-Jan-08 11:31N 31°34' E 121°20'0 0.0
2017-Jan-08 10:22N 31°34' E 121°20'0 0.0
2017-Jan-08 09:31N 31°34' E 121°20'0 0.0
2017-Jan-08 08:31N 31°34' E 121°20'0 0.0
2017-Jan-08 07:28N 31°34' E 121°20'0 0.0
2017-Jan-08 06:25N 31°34' E 121°20'0 0.0
2017-Jan-08 05:31N 31°34' E 121°20'0 0.0
2017-Jan-08 04:31N 31°34' E 121°20'0 0.0
2017-Jan-08 03:31N 31°34' E 121°20'0 0.0
2017-Jan-08 02:31N 31°34' E 121°20'0 0.1
2017-Jan-08 01:32N 31°34' E 121°20'0 0.0
2017-Jan-08 00:25N 31°34' E 121°20'0 0.1
2017-Jan-07 23:31N 31°34' E 121°20'0 0.1
2017-Jan-07 22:28N 31°34' E 121°20'0 0.1
2017-Jan-07 21:28N 31°34' E 121°20'0 0.0
2017-Jan-07 20:25N 31°34' E 121°20'0 0.0
2017-Jan-07 19:31N 31°34' E 121°20'0 0.0
2017-Jan-07 18:28N 31°34' E 121°20'0 0.0
2017-Jan-07 17:25N 31°34' E 121°20'0 0.0
2017-Jan-07 16:31N 31°34' E 121°20'0 0.0
2017-Jan-07 15:28N 31°34' E 121°20'0 0.0
2017-Jan-07 14:31N 31°34' E 121°20'0 0.2
2017-Jan-07 13:33N 31°34' E 121°20'9 8.9
2017-Jan-07 12:34N 31°40' E 121°12'3911.9
2017-Jan-07 09:14N 32°01' E 120°33'8 0.2
2017-Jan-05 10:14N 32°01' E 120°24'3411.3
2017-Jan-05 07:15N 31°47' E 120°60'913.1
2017-Jan-05 06:33N 31°42' E 121°09'1313.2
2017-Jan-05 05:33N 31°33' E 121°20'1211.7
2017-Jan-05 04:33N 31°25' E 121°31'10 9.7
2017-Jan-05 03:33N 31°21' E 121°41'1111.0
2017-Jan-05 02:33N 31°16' E 121°52'1010.4
2017-Jan-05 01:33N 31°14' E 122°04'1010.1
2017-Jan-05 00:33N 31°09' E 122°14'1010.1
2017-Jan-04 23:33N 31°06' E 122°26'8 7.5
2017-Jan-04 22:27N 31°09' E 122°35'0 0.0
2017-Jan-04 12:22N 31°09' E 122°35'0 0.0
2017-Jan-03 01:10N 31°09' E 122°35'0 0.1
2017-Jan-02 23:23N 31°09' E 122°35'7 6.2
2017-Jan-02 22:19N 31°06' E 122°42'910.6
2017-Jan-02 21:28N 31°06' E 122°52'1412.0
2017-Jan-02 20:17N 30°56' E 123°04'1012.5
2017-Jan-02 19:30N 30°49' E 123°12'  
Track history (hours):
 
Tides and Currents Weather Stations Pressure Air Temp Water Temp Dewpoint Dewpoint Depression Visibility Wind Speed Wind Dir Waves Ship Positions

Ncc Rabigh

Last reported at 2017-Jan-10 07:26 UTC. Time now 2017-Jan-20 13:52 UTC.
Position N 31°05' E 122°27'.
Warning: this ship's position is 10 days out of date.

Length 183 m; draft 7.5 m.

Type: Ship. MMSI: 403575000.

Date/timePositionNaut miles runAvg speedWind from/ knotsBaromVisibWave heightAir tempDewpointWater temp
2017-Jan-10 07:26N 31°05' E 122°27'1112.7
2017-Jan-10 06:33N 31°08' E 122°15'1514.7
2017-Jan-10 05:33N 31°15' E 121°59'1413.9
2017-Jan-10 04:33N 31°19' E 121°44'1211.9
2017-Jan-10 03:33N 31°25' E 121°31'9 8.9
2017-Jan-10 02:33N 31°31' E 121°24'7 6.4
2017-Jan-10 01:32N 31°35' E 121°18'0 0.0
2017-Jan-10 00:32N 31°35' E 121°18'0 0.0
2017-Jan-09 23:32N 31°35' E 121°18'0 0.0
2017-Jan-09 22:32N 31°35' E 121°18'0 0.0
2017-Jan-09 21:32N 31°35' E 121°18'0 0.0
2017-Jan-09 20:32N 31°35' E 121°18'0 0.0
2017-Jan-09 19:32N 31°35' E 121°18'0 0.0
2017-Jan-09 18:32N 31°35' E 121°18'0 0.0
2017-Jan-09 17:32N 31°35' E 121°18'0 0.0
2017-Jan-09 16:26N 31°35' E 121°18'0 0.0
2017-Jan-09 15:26N 31°35' E 121°18'0 0.0
2017-Jan-09 14:32N 31°35' E 121°18'0 0.0
2017-Jan-09 13:32N 31°35' E 121°18'0 0.0
2017-Jan-09 12:32N 31°35' E 121°18'0 0.0
2017-Jan-09 11:28N 31°35' E 121°18'0 0.0
2017-Jan-09 10:32N 31°35' E 121°18'0 0.0
2017-Jan-09 09:32N 31°35' E 121°18'0 0.0
2017-Jan-09 08:31N 31°35' E 121°18'0 0.0
2017-Jan-09 07:32N 31°35' E 121°18'0 0.0
2017-Jan-09 06:31N 31°35' E 121°18'0 0.0
2017-Jan-09 05:29N 31°35' E 121°18'0 0.0
2017-Jan-09 04:31N 31°35' E 121°18'0 0.0
2017-Jan-09 03:32N 31°35' E 121°18'0 0.4
2017-Jan-09 02:33N 31°35' E 121°18'2 1.7
2017-Jan-09 01:28N 31°34' E 121°20'0 0.0
2017-Jan-09 00:28N 31°34' E 121°20'0 0.2
2017-Jan-08 23:28N 31°34' E 121°20'0 0.1
2017-Jan-08 22:28N 31°34' E 121°20'0 0.0
2017-Jan-08 21:31N 31°34' E 121°20'0 0.0
2017-Jan-08 20:31N 31°34' E 121°20'0 0.0
2017-Jan-08 19:31N 31°34' E 121°20'0 0.0
2017-Jan-08 18:28N 31°34' E 121°20'0 0.1
2017-Jan-08 17:28N 31°34' E 121°20'0 0.0
2017-Jan-08 16:31N 31°34' E 121°20'0 0.0
2017-Jan-08 15:28N 31°34' E 121°20'0 0.0
2017-Jan-08 14:28N 31°34' E 121°20'0 0.0
2017-Jan-08 13:22N 31°34' E 121°20'0 0.1
2017-Jan-08 12:31N 31°34' E 121°20'0 0.1
2017-Jan-08 11:31N 31°34' E 121°20'0 0.0
2017-Jan-08 10:22N 31°34' E 121°20'0 0.0
2017-Jan-08 09:31N 31°34' E 121°20'0 0.0
2017-Jan-08 08:31N 31°34' E 121°20'0 0.0
2017-Jan-08 07:28N 31°34' E 121°20'0 0.0
2017-Jan-08 06:25N 31°34' E 121°20'0 0.0
2017-Jan-08 05:31N 31°34' E 121°20'0 0.0
2017-Jan-08 04:31N 31°34' E 121°20'0 0.0
2017-Jan-08 03:31N 31°34' E 121°20'0 0.0
2017-Jan-08 02:31N 31°34' E 121°20'0 0.1
2017-Jan-08 01:32N 31°34' E 121°20'0 0.0
2017-Jan-08 00:25N 31°34' E 121°20'0 0.1
2017-Jan-07 23:31N 31°34' E 121°20'0 0.1
2017-Jan-07 22:28N 31°34' E 121°20'0 0.1
2017-Jan-07 21:28N 31°34' E 121°20'0 0.0
2017-Jan-07 20:25N 31°34' E 121°20'0 0.0
2017-Jan-07 19:31N 31°34' E 121°20'0 0.0
2017-Jan-07 18:28N 31°34' E 121°20'0 0.0
2017-Jan-07 17:25N 31°34' E 121°20'0 0.0
2017-Jan-07 16:31N 31°34' E 121°20'0 0.0
2017-Jan-07 15:28N 31°34' E 121°20'0 0.0
2017-Jan-07 14:31N 31°34' E 121°20'0 0.2
2017-Jan-07 13:33N 31°34' E 121°20'9 8.9
2017-Jan-07 12:34N 31°40' E 121°12'3911.9
2017-Jan-07 09:14N 32°01' E 120°33'8 0.2
2017-Jan-05 10:14N 32°01' E 120°24'3411.3
2017-Jan-05 07:15N 31°47' E 120°60'913.1
2017-Jan-05 06:33N 31°42' E 121°09'1313.2
2017-Jan-05 05:33N 31°33' E 121°20'1211.7
2017-Jan-05 04:33N 31°25' E 121°31'10 9.7
2017-Jan-05 03:33N 31°21' E 121°41'1111.0
2017-Jan-05 02:33N 31°16' E 121°52'1010.4
2017-Jan-05 01:33N 31°14' E 122°04'1010.1
2017-Jan-05 00:33N 31°09' E 122°14'1010.1
2017-Jan-04 23:33N 31°06' E 122°26'8 7.5
2017-Jan-04 22:27N 31°09' E 122°35'0 0.0
2017-Jan-04 12:22N 31°09' E 122°35'0 0.0
2017-Jan-03 01:10N 31°09' E 122°35'0 0.1
2017-Jan-02 23:23N 31°09' E 122°35'7 6.2
2017-Jan-02 22:19N 31°06' E 122°42'910.6
2017-Jan-02 21:28N 31°06' E 122°52'1412.0
2017-Jan-02 20:17N 30°56' E 123°04'1012.5
2017-Jan-02 19:30N 30°49' E 123°12'  

Dump ship's entire track history